createdAt,value
2022-10-18T00:01:17.376Z,79.74
2022-10-18T00:03:45.114Z,79.73
2022-10-18T00:06:13.097Z,80.10
2022-10-18T00:08:41.110Z,80.24
2022-10-18T00:11:08.979Z,79.81
2022-10-18T00:13:37.658Z,79.99
2022-10-18T00:16:12.607Z,80.20
2022-10-18T00:18:40.826Z,80.31
2022-10-18T00:21:13.926Z,80.13
2022-10-18T00:23:41.766Z,80.25
2022-10-18T00:26:12.356Z,80.28
2022-10-18T00:28:42.236Z,80.12
2022-10-18T00:31:13.358Z,80.41
2022-10-18T00:33:41.926Z,80.07
2022-10-18T00:36:11.172Z,80.30
2022-10-18T00:38:39.536Z,80.28
2022-10-18T00:41:12.091Z,80.09
2022-10-18T00:43:58.285Z,79.98
2022-10-18T00:46:30.708Z,80.22
2022-10-18T00:49:00.965Z,80.33
2022-10-18T00:51:37.650Z,80.40
2022-10-18T00:54:06.015Z,80.09
2022-10-18T00:56:35.483Z,80.10
2022-10-18T00:59:03.903Z,80.08
2022-10-18T01:01:33.211Z,80.22
2022-10-18T01:04:01.186Z,80.37
2022-10-18T01:06:30.039Z,80.22
2022-10-18T01:09:11.099Z,80.45
2022-10-18T01:11:56.984Z,80.45
2022-10-18T01:14:35.928Z,80.48
2022-10-18T01:17:22.630Z,80.03
2022-10-18T01:20:17.153Z,80.40
2022-10-18T01:22:48.995Z,80.09
2022-10-18T01:25:38.016Z,80.18
2022-10-18T01:28:21.233Z,79.92
2022-10-18T01:30:55.844Z,79.96
2022-10-18T01:33:37.127Z,79.83
2022-10-18T01:36:11.118Z,79.95
2022-10-18T01:38:40.614Z,80.00
2022-10-18T01:41:14.860Z,79.82
2022-10-18T01:43:46.436Z,80.12
2022-10-18T01:46:20.829Z,80.10
2022-10-18T01:48:51.790Z,80.34
2022-10-18T01:51:20.676Z,80.18
2022-10-18T01:53:48.546Z,80.58
2022-10-18T01:56:23.737Z,80.15
2022-10-18T01:59:04.624Z,80.19
2022-10-18T02:01:44.390Z,80.44
2022-10-18T02:04:21.600Z,80.43
2022-10-18T02:06:56.062Z,80.31
2022-10-18T02:09:34.679Z,79.92
2022-10-18T02:12:07.357Z,80.20
2022-10-18T02:14:36.070Z,80.44
2022-10-18T02:17:09.051Z,80.37
2022-10-18T02:19:41.446Z,80.76
2022-10-18T02:22:13.218Z,80.59
2022-10-18T02:24:45.708Z,80.75
2022-10-18T02:27:13.894Z,80.67
2022-10-18T02:29:43.107Z,80.89
2022-10-18T02:32:18.580Z,80.73
2022-10-18T02:34:50.845Z,80.56
2022-10-18T02:37:21.129Z,80.72
2022-10-18T02:39:51.248Z,80.86
2022-10-18T02:42:19.477Z,80.92
2022-10-18T02:44:47.240Z,80.29
2022-10-18T02:47:16.692Z,80.51
2022-10-18T02:49:44.441Z,80.54
2022-10-18T02:52:12.275Z,80.97
2022-10-18T02:54:40.059Z,80.79
2022-10-18T02:57:08.475Z,80.84
2022-10-18T02:59:36.275Z,80.54
2022-10-18T03:04:47.331Z,80.50
2022-10-18T03:07:17.880Z,80.55
2022-10-18T03:09:45.866Z,80.95
2022-10-18T03:12:13.953Z,80.85
2022-10-18T03:14:53.595Z,80.78
2022-10-18T03:17:24.480Z,80.46
2022-10-18T03:19:53.559Z,80.70
2022-10-18T03:22:21.403Z,81.07
2022-10-18T03:24:49.255Z,80.91
2022-10-18T03:27:19.399Z,80.66
2022-10-18T03:29:54.764Z,80.81
2022-10-18T03:32:50.008Z,81.05
2022-10-18T03:35:19.430Z,80.82
2022-10-18T03:37:47.482Z,80.92
2022-10-18T03:40:15.465Z,80.72
2022-10-18T03:42:48.694Z,80.95
2022-10-18T03:45:19.473Z,80.92
2022-10-18T03:47:47.338Z,81.09
2022-10-18T03:50:15.290Z,81.36
2022-10-18T03:52:59.272Z,81.01
2022-10-18T03:55:36.042Z,81.33
2022-10-18T03:58:06.075Z,81.17
2022-10-18T04:00:40.344Z,81.02
2022-10-18T04:03:10.077Z,80.86
2022-10-18T04:05:44.005Z,81.42
2022-10-18T04:08:13.523Z,81.04
2022-10-18T04:10:44.366Z,80.93
2022-10-18T04:13:16.097Z,81.47
2022-10-18T04:15:50.021Z,80.91
2022-10-18T04:18:17.821Z,81.32
2022-10-18T04:20:48.103Z,81.29
2022-10-18T04:23:20.104Z,81.06
2022-10-18T04:25:48.567Z,81.15
2022-10-18T04:28:16.553Z,81.29
2022-10-18T04:30:44.449Z,81.08
2022-10-18T04:33:12.371Z,81.40
2022-10-18T04:35:54.357Z,80.88
2022-10-18T04:38:23.536Z,81.09
2022-10-18T04:40:51.480Z,80.95
2022-10-18T04:43:19.610Z,81.57
2022-10-18T04:45:48.110Z,81.28
2022-10-18T04:48:19.415Z,81.27
2022-10-18T04:50:52.146Z,81.16
2022-10-18T04:53:20.616Z,81.32
2022-10-18T04:55:51.176Z,81.48
2022-10-18T04:58:19.859Z,81.59
2022-10-18T05:00:49.061Z,81.03
2022-10-18T05:03:17.690Z,81.35
2022-10-18T05:06:01.948Z,81.50
2022-10-18T05:08:39.876Z,81.11
2022-10-18T05:11:15.405Z,81.45
2022-10-18T05:13:45.946Z,81.63
2022-10-18T05:16:15.961Z,81.73
2022-10-18T05:18:44.148Z,81.52
2022-10-18T05:21:12.746Z,81.67
2022-10-18T05:23:43.718Z,81.45
2022-10-18T05:26:13.769Z,81.59
2022-10-18T05:28:57.038Z,81.54
2022-10-18T05:31:27.034Z,81.49
2022-10-18T05:33:58.150Z,81.51
2022-10-18T05:36:26.159Z,81.51
2022-10-18T05:39:02.616Z,81.12
2022-10-18T05:41:35.598Z,81.33
2022-10-18T05:44:08.496Z,81.37
2022-10-18T05:46:37.288Z,81.71
2022-10-18T05:49:05.246Z,81.58
2022-10-18T05:51:35.581Z,81.51
2022-10-18T05:54:06.197Z,81.82
2022-10-18T05:56:34.262Z,81.76
2022-10-18T05:59:12.296Z,81.46
2022-10-18T06:01:43.947Z,81.93
2022-10-18T06:04:15.059Z,81.37
2022-10-18T06:06:42.901Z,81.50
2022-10-18T06:09:10.819Z,81.85
2022-10-18T06:11:45.935Z,81.59
2022-10-18T06:14:15.153Z,81.40
2022-10-18T06:19:25.181Z,81.38
2022-10-18T06:21:53.104Z,81.60
2022-10-18T06:24:21.680Z,81.65
2022-10-18T06:26:50.049Z,81.72
2022-10-18T06:29:21.792Z,81.83
2022-10-18T06:31:49.691Z,81.38
2022-10-18T06:34:18.080Z,81.62
2022-10-18T06:36:52.879Z,81.64
2022-10-18T06:39:23.088Z,81.90
2022-10-18T06:41:50.844Z,81.58
2022-10-18T06:44:27.564Z,81.36
2022-10-18T06:46:55.318Z,81.94
2022-10-18T06:49:23.335Z,81.22
2022-10-18T06:51:51.355Z,81.68
2022-10-18T06:54:19.472Z,81.42
2022-10-18T06:56:47.638Z,81.88
2022-10-18T06:59:16.093Z,81.67
2022-10-18T07:01:45.655Z,81.65
2022-10-18T07:04:13.638Z,81.84
2022-10-18T07:06:41.742Z,81.79
2022-10-18T07:09:09.601Z,81.54
2022-10-18T07:11:43.011Z,81.60
2022-10-18T07:14:14.038Z,81.70
2022-10-18T07:17:00.242Z,81.36
2022-10-18T07:19:28.411Z,81.75
2022-10-18T07:21:56.211Z,81.24
2022-10-18T07:24:26.490Z,81.41
2022-10-18T07:26:54.782Z,81.21
2022-10-18T07:29:22.661Z,81.15
2022-10-18T07:31:53.561Z,81.30
2022-10-18T07:34:23.208Z,81.14
2022-10-18T07:36:50.979Z,81.42
2022-10-18T07:39:18.803Z,81.10
2022-10-18T07:41:46.565Z,80.94
2022-10-18T07:44:15.386Z,80.83
2022-10-18T07:46:43.191Z,80.50
2022-10-18T07:49:13.809Z,80.87
2022-10-18T07:51:49.633Z,80.80
2022-10-18T07:54:19.867Z,80.35
2022-10-18T07:56:47.892Z,80.34
2022-10-18T07:59:17.363Z,80.55
2022-10-18T08:01:54.393Z,80.25
2022-10-18T08:04:24.782Z,80.05
2022-10-18T08:06:54.107Z,80.36
2022-10-18T08:09:22.396Z,80.24
2022-10-18T08:11:50.291Z,79.67
2022-10-18T08:14:25.447Z,79.15
2022-10-18T08:16:55.464Z,78.85
2022-10-18T08:19:25.869Z,78.48
2022-10-18T08:21:55.084Z,78.46
2022-10-18T08:24:34.648Z,78.27
2022-10-18T08:27:04.354Z,77.95
2022-10-18T08:29:32.335Z,77.84
2022-10-18T08:32:04.392Z,77.89
2022-10-18T08:34:35.378Z,78.42
2022-10-18T08:37:04.762Z,78.60
2022-10-18T08:39:32.612Z,78.98
2022-10-18T08:42:42.724Z,79.38
2022-10-18T08:45:37.297Z,80.15
2022-10-18T08:48:02.418Z,80.46
2022-10-18T08:50:36.765Z,80.36
2022-10-18T08:53:25.123Z,80.74
2022-10-18T08:56:00.422Z,80.38
2022-10-18T08:58:33.416Z,80.54
2022-10-18T09:01:20.677Z,80.27
2022-10-18T09:04:27.571Z,80.60
2022-10-18T09:07:17.279Z,80.54
2022-10-18T09:09:57.352Z,80.36
2022-10-18T09:12:42.673Z,80.42
2022-10-18T09:15:21.371Z,80.50
2022-10-18T09:18:15.117Z,80.17
2022-10-18T09:20:54.028Z,80.37
2022-10-18T09:23:51.638Z,80.22
2022-10-18T09:26:25.872Z,79.99
2022-10-18T09:29:11.776Z,79.58
2022-10-18T09:31:56.100Z,79.44
2022-10-18T09:34:31.840Z,79.49
2022-10-18T09:37:00.758Z,79.63
2022-10-18T09:39:33.200Z,79.38
2022-10-18T09:42:18.443Z,79.17
2022-10-18T09:44:52.227Z,79.03
2022-10-18T09:47:24.825Z,79.25
2022-10-18T09:49:58.999Z,79.25
2022-10-18T09:52:32.161Z,79.06
2022-10-18T09:55:04.462Z,78.69
2022-10-18T09:57:39.538Z,78.31
2022-10-18T10:00:16.419Z,78.28
2022-10-18T10:02:44.497Z,78.14
2022-10-18T10:05:14.526Z,78.06
2022-10-18T10:07:44.723Z,78.09
2022-10-18T10:10:21.329Z,78.40
2022-10-18T10:13:07.730Z,78.08
2022-10-18T10:15:38.175Z,77.63
2022-10-18T10:18:21.879Z,77.34
2022-10-18T10:20:58.286Z,77.51
2022-10-18T10:23:30.579Z,77.45
2022-10-18T10:26:08.156Z,77.32
2022-10-18T10:28:43.622Z,77.46
2022-10-18T10:31:28.497Z,76.84
2022-10-18T10:34:01.474Z,76.71
2022-10-18T10:36:29.844Z,76.89
2022-10-18T10:39:06.627Z,77.61
2022-10-18T10:41:35.405Z,77.92
2022-10-18T10:44:14.943Z,78.11
2022-10-18T10:46:43.628Z,77.77
2022-10-18T10:49:40.066Z,76.97
2022-10-18T10:52:25.927Z,76.14
2022-10-18T10:55:05.812Z,75.32
2022-10-18T10:57:49.729Z,75.09
2022-10-18T11:00:39.425Z,73.73
2022-10-18T11:03:27.863Z,74.81
2022-10-18T11:05:58.094Z,75.42
2022-10-18T11:08:29.518Z,75.80
2022-10-18T11:11:16.950Z,76.24
2022-10-18T11:13:56.935Z,76.57
2022-10-18T11:16:40.531Z,76.60
2022-10-18T11:19:26.372Z,76.39
2022-10-18T11:21:58.248Z,75.89
2022-10-18T11:24:29.139Z,75.89
2022-10-18T11:27:11.338Z,75.73
2022-10-18T11:30:09.475Z,75.36
2022-10-18T11:32:45.361Z,75.24
2022-10-18T11:35:28.709Z,75.33
2022-10-18T11:38:07.542Z,75.38
2022-10-18T11:40:53.681Z,74.98
2022-10-18T11:43:30.311Z,75.02
2022-10-18T11:46:14.735Z,75.11
2022-10-18T11:48:58.787Z,75.13
2022-10-18T11:51:55.909Z,74.85
2022-10-18T11:54:43.675Z,74.96
2022-10-18T11:57:22.305Z,71.88
2022-10-18T12:00:03.455Z,73.99
2022-10-18T12:03:11.182Z,73.45
2022-10-18T12:05:55.339Z,73.59
2022-10-18T12:08:29.240Z,73.93
2022-10-18T12:11:07.072Z,73.51
2022-10-18T12:13:42.394Z,73.68
2022-10-18T12:16:11.984Z,73.42
2022-10-18T12:18:54.822Z,73.40
2022-10-18T12:21:29.425Z,73.02
2022-10-18T12:24:04.035Z,73.14
2022-10-18T12:26:37.052Z,73.22
2022-10-18T12:29:19.281Z,72.46
2022-10-18T12:31:51.217Z,72.68
2022-10-18T12:34:43.949Z,72.34
2022-10-18T12:37:54.987Z,72.14
2022-10-18T12:40:26.557Z,71.87
2022-10-18T12:42:54.754Z,71.96
2022-10-18T12:45:30.253Z,71.86
2022-10-18T12:48:02.076Z,71.94
2022-10-18T12:50:36.198Z,71.67
2022-10-18T12:53:20.251Z,71.65
2022-10-18T12:55:51.521Z,71.40
2022-10-18T12:58:26.424Z,70.71
2022-10-18T13:01:01.111Z,70.13
2022-10-18T13:04:02.226Z,68.98
2022-10-18T13:07:07.923Z,70.16
2022-10-18T13:09:42.071Z,69.26
2022-10-18T13:12:31.544Z,60.83
2022-10-18T13:15:24.687Z,68.70
2022-10-18T13:18:02.525Z,68.75
2022-10-18T13:20:39.915Z,69.10
2022-10-18T13:23:24.345Z,69.64
2022-10-18T13:25:57.919Z,66.24
2022-10-18T13:28:31.917Z,69.67
2022-10-18T13:31:03.950Z,64.10
2022-10-18T13:33:38.843Z,69.60
2022-10-18T13:36:25.979Z,69.73
2022-10-18T13:39:07.251Z,70.22
2022-10-18T13:42:08.833Z,70.14
2022-10-18T13:44:40.002Z,70.29
2022-10-18T13:47:13.676Z,70.02
2022-10-18T13:50:04.011Z,70.19
2022-10-18T13:52:50.231Z,70.22
2022-10-18T13:55:49.813Z,66.93
2022-10-18T13:58:27.581Z,69.97
2022-10-18T14:01:14.266Z,69.75
2022-10-18T14:04:27.277Z,67.82
2022-10-18T14:07:02.350Z,68.94
2022-10-18T14:09:44.184Z,68.87
2022-10-18T14:12:27.672Z,67.95
2022-10-18T14:15:00.846Z,68.09
2022-10-18T14:17:42.786Z,67.76
2022-10-18T14:20:40.100Z,67.59
2022-10-18T14:23:19.987Z,68.10
2022-10-18T14:25:48.981Z,67.89
2022-10-18T14:28:36.310Z,67.13
2022-10-18T14:31:15.108Z,67.28
2022-10-18T14:33:47.110Z,66.77
2022-10-18T14:36:17.325Z,66.27
2022-10-18T14:38:51.834Z,65.62
2022-10-18T14:41:24.809Z,66.10
2022-10-18T14:43:56.049Z,66.75
2022-10-18T14:46:28.980Z,67.62
2022-10-18T14:49:15.965Z,61.84
2022-10-18T14:51:46.492Z,66.42
2022-10-18T14:54:19.543Z,66.33
2022-10-18T14:56:56.352Z,65.25
2022-10-18T14:59:30.591Z,64.20
2022-10-18T15:02:02.038Z,65.10
2022-10-18T15:04:36.557Z,64.99
2022-10-18T15:07:07.608Z,65.87
2022-10-18T15:09:36.986Z,66.17
2022-10-18T15:12:09.705Z,65.71
2022-10-18T15:14:40.920Z,65.86
2022-10-18T15:17:15.868Z,66.27
2022-10-18T15:20:01.791Z,61.08
2022-10-18T15:22:34.018Z,65.75
2022-10-18T15:25:23.750Z,62.77
2022-10-18T15:27:57.123Z,66.39
2022-10-18T15:30:28.125Z,66.06
2022-10-18T15:33:00.106Z,66.43
2022-10-18T15:35:33.491Z,66.57
2022-10-18T15:38:15.994Z,65.67
2022-10-18T15:40:45.112Z,67.33
2022-10-18T15:43:35.810Z,67.51
2022-10-18T15:46:07.501Z,68.28
2022-10-18T15:48:38.229Z,68.64
2022-10-18T15:51:09.858Z,69.26
2022-10-18T15:53:46.195Z,68.98
2022-10-18T15:56:32.190Z,68.79
2022-10-18T15:59:05.272Z,69.69
2022-10-18T16:01:46.140Z,70.00
2022-10-18T16:04:19.481Z,70.25
2022-10-18T16:07:11.028Z,70.08
2022-10-18T16:09:39.212Z,70.21
2022-10-18T16:12:07.020Z,70.54
2022-10-18T16:14:35.244Z,70.98
2022-10-18T16:17:09.182Z,71.07
2022-10-18T16:19:36.951Z,69.91
2022-10-18T16:24:44.755Z,71.84
2022-10-18T16:27:12.851Z,72.06
2022-10-18T16:29:41.542Z,71.75
2022-10-18T16:32:09.548Z,71.73
2022-10-18T16:34:37.436Z,71.95
2022-10-18T16:37:08.598Z,72.45
2022-10-18T16:39:36.687Z,72.45
2022-10-18T16:42:04.709Z,72.20
2022-10-18T16:44:32.751Z,72.14
2022-10-18T16:47:08.023Z,72.39
2022-10-18T16:49:36.187Z,72.56
2022-10-18T16:52:04.070Z,72.74
2022-10-18T16:54:36.479Z,72.95
2022-10-18T16:57:20.735Z,72.70
2022-10-18T16:59:48.609Z,73.04
2022-10-18T17:02:19.504Z,73.14
2022-10-18T17:04:47.355Z,73.26
2022-10-18T17:07:23.961Z,73.08
2022-10-18T17:09:55.760Z,73.22
2022-10-18T17:12:26.452Z,73.20
2022-10-18T17:14:54.873Z,73.14
2022-10-18T17:17:22.934Z,73.17
2022-10-18T17:19:50.967Z,73.29
2022-10-18T17:22:18.766Z,73.87
2022-10-18T17:24:46.685Z,73.97
2022-10-18T17:27:16.014Z,73.77
2022-10-18T17:29:44.126Z,73.80
2022-10-18T17:32:12.865Z,74.11
2022-10-18T17:34:47.907Z,73.99
2022-10-18T17:37:15.977Z,74.27
2022-10-18T17:39:43.843Z,74.45
2022-10-18T17:42:11.950Z,74.64
2022-10-18T17:44:43.194Z,74.58
2022-10-18T17:47:13.981Z,74.88
2022-10-18T17:49:43.783Z,74.64
2022-10-18T17:52:11.763Z,74.61
2022-10-18T17:54:39.768Z,74.68
2022-10-18T17:57:08.053Z,74.73
2022-10-18T17:59:35.866Z,74.91
2022-10-18T18:02:04.984Z,74.72
2022-10-18T18:04:33.005Z,74.92
2022-10-18T18:07:02.560Z,74.85
2022-10-18T18:09:30.682Z,74.87
2022-10-18T18:12:08.968Z,74.80
2022-10-18T18:14:37.789Z,75.11
2022-10-18T18:17:28.656Z,75.02
2022-10-18T18:20:06.873Z,75.08
2022-10-18T18:22:40.445Z,74.99
2022-10-18T18:25:11.108Z,75.08
2022-10-18T18:27:42.653Z,75.37
2022-10-18T18:30:15.283Z,75.22
2022-10-18T18:32:44.698Z,75.44
2022-10-18T18:35:12.792Z,75.50
2022-10-18T18:37:40.772Z,75.74
2022-10-18T18:40:09.763Z,75.18
2022-10-18T18:42:40.054Z,75.33
2022-10-18T18:45:11.144Z,75.11
2022-10-18T18:47:39.832Z,75.36
2022-10-18T18:50:14.380Z,75.08
2022-10-18T18:52:43.153Z,74.88
2022-10-18T18:55:12.773Z,75.36
2022-10-18T18:57:46.437Z,75.03
2022-10-18T19:00:15.801Z,75.20
2022-10-18T19:02:44.489Z,75.37
2022-10-18T19:07:54.862Z,75.40
2022-10-18T19:10:22.774Z,75.71
2022-10-18T19:12:50.803Z,75.80
2022-10-18T19:15:19.758Z,75.76
2022-10-18T19:17:47.645Z,75.62
2022-10-18T19:20:17.654Z,75.46
2022-10-18T19:22:47.337Z,75.78
2022-10-18T19:25:16.975Z,75.82
2022-10-18T19:27:56.593Z,75.78
2022-10-18T19:30:24.642Z,75.98
2022-10-18T19:33:07.698Z,76.06
2022-10-18T19:35:52.042Z,76.13
2022-10-18T19:38:24.196Z,76.18
2022-10-18T19:40:54.308Z,76.17
2022-10-18T19:43:22.232Z,76.48
2022-10-18T19:45:51.418Z,75.61
2022-10-18T19:48:25.543Z,75.62
2022-10-18T19:51:09.423Z,75.39
2022-10-18T19:53:39.452Z,75.06
2022-10-18T19:56:10.457Z,74.92
2022-10-18T19:58:59.991Z,74.86
2022-10-18T20:01:30.229Z,74.77
2022-10-18T20:03:58.861Z,74.87
2022-10-18T20:09:14.781Z,74.54
2022-10-18T20:11:54.980Z,74.73
2022-10-18T20:14:22.995Z,74.58
2022-10-18T20:16:50.895Z,74.62
2022-10-18T20:19:21.973Z,74.74
2022-10-18T20:21:58.826Z,74.88
2022-10-18T20:24:30.312Z,74.84
2022-10-18T20:27:00.687Z,74.78
2022-10-18T20:29:30.058Z,74.58
2022-10-18T20:31:57.875Z,74.46
2022-10-18T20:34:28.343Z,74.70
2022-10-18T20:36:57.008Z,74.54
2022-10-18T20:39:28.368Z,74.50
2022-10-18T20:42:05.080Z,74.39
2022-10-18T20:44:37.831Z,74.58
2022-10-18T20:47:06.007Z,74.63
2022-10-18T20:49:33.891Z,74.63
2022-10-18T20:52:04.850Z,74.91
2022-10-18T20:54:32.575Z,75.07
2022-10-18T20:57:04.001Z,75.24
2022-10-18T20:59:33.909Z,74.89
2022-10-18T21:02:01.777Z,75.21
2022-10-18T21:04:32.605Z,74.88
2022-10-18T21:07:01.077Z,74.99
2022-10-18T21:09:35.027Z,75.09
2022-10-18T21:12:06.852Z,75.25
2022-10-18T21:14:34.737Z,75.56
2022-10-18T21:17:05.384Z,75.21
2022-10-18T21:19:33.491Z,75.29
2022-10-18T21:22:04.465Z,75.48
2022-10-18T21:24:46.808Z,75.46
2022-10-18T21:27:16.229Z,75.27
2022-10-18T21:29:44.035Z,75.12
2022-10-18T21:32:11.935Z,75.55
2022-10-18T21:34:48.826Z,74.96
2022-10-18T21:37:16.754Z,75.29
2022-10-18T21:39:44.528Z,75.22
2022-10-18T21:42:13.548Z,75.20
2022-10-18T21:44:42.792Z,74.83
2022-10-18T21:47:12.753Z,74.85
2022-10-18T21:49:40.634Z,74.95
2022-10-18T21:52:08.374Z,74.45
2022-10-18T21:54:36.152Z,74.63
2022-10-18T21:57:06.788Z,74.44
2022-10-18T21:59:54.999Z,74.49
2022-10-18T22:02:22.756Z,74.36
2022-10-18T22:04:53.666Z,74.17
2022-10-18T22:07:21.516Z,74.09
2022-10-18T22:09:49.318Z,73.93
2022-10-18T22:12:24.655Z,74.04
2022-10-18T22:15:04.824Z,74.06
2022-10-18T22:17:32.879Z,74.00
2022-10-18T22:20:01.124Z,74.08
2022-10-18T22:22:36.071Z,74.14
2022-10-18T22:25:03.991Z,74.11
2022-10-18T22:27:32.670Z,74.12
2022-10-18T22:30:01.979Z,74.08
2022-10-18T22:32:29.731Z,74.24
2022-10-18T22:35:00.649Z,74.06
2022-10-18T22:37:28.474Z,74.17
2022-10-18T22:39:59.558Z,74.12
2022-10-18T22:42:27.390Z,74.00
2022-10-18T22:44:57.615Z,73.96
2022-10-18T22:47:26.734Z,73.93
2022-10-18T22:49:54.601Z,73.98
2022-10-18T22:52:22.362Z,74.12
2022-10-18T22:54:53.154Z,74.01
2022-10-18T22:57:28.171Z,74.51
2022-10-18T22:59:56.501Z,74.47
2022-10-18T23:02:24.295Z,74.44
2022-10-18T23:04:53.415Z,74.32
2022-10-18T23:07:21.225Z,74.90
2022-10-18T23:09:48.973Z,74.82
2022-10-18T23:12:16.756Z,74.93
2022-10-18T23:14:51.840Z,74.73
2022-10-18T23:17:19.674Z,74.70
2022-10-18T23:19:47.983Z,75.23
2022-10-18T23:22:21.170Z,74.86
2022-10-18T23:24:48.964Z,75.06
2022-10-18T23:27:16.934Z,74.91
2022-10-18T23:29:47.751Z,74.89
2022-10-18T23:32:15.460Z,74.84
2022-10-18T23:34:49.329Z,75.00
2022-10-18T23:37:20.801Z,74.89
2022-10-18T23:39:48.616Z,74.98
2022-10-18T23:42:16.578Z,74.65
2022-10-18T23:44:47.986Z,74.88
2022-10-18T23:47:18.917Z,75.01
2022-10-18T23:49:46.781Z,74.63
2022-10-18T23:52:24.747Z,75.09
2022-10-18T23:54:52.523Z,75.04
2022-10-18T23:57:20.351Z,74.79
2022-10-18T23:59:54.377Z,74.65
